sensor_id;sensor_type;location;lat;lon;timestamp;pressure;altitude;pressure_sealevel;temperature
28803;BMP280;15949;55.656;37.422;2022-11-03T00:01:52;99348.00;;;-1.55
28803;BMP280;15949;55.656;37.422;2022-11-03T00:06:57;99352.31;;;-1.47
28803;BMP280;15949;55.656;37.422;2022-11-03T00:12:03;99345.75;;;-1.41
28803;BMP280;15949;55.656;37.422;2022-11-03T00:17:08;99355.75;;;-1.43
28803;BMP280;15949;55.656;37.422;2022-11-03T00:22:14;99355.06;;;-1.40
28803;BMP280;15949;55.656;37.422;2022-11-03T00:27:20;99355.69;;;-1.46
28803;BMP280;15949;55.656;37.422;2022-11-03T00:32:25;99347.50;;;-1.45
28803;BMP280;15949;55.656;37.422;2022-11-03T00:37:31;99352.81;;;-1.41
28803;BMP280;15949;55.656;37.422;2022-11-03T00:42:36;99355.00;;;-1.43
28803;BMP280;15949;55.656;37.422;2022-11-03T00:47:43;99361.00;;;-1.43
28803;BMP280;15949;55.656;37.422;2022-11-03T00:53:07;99359.63;;;-1.37
28803;BMP280;15949;55.656;37.422;2022-11-03T00:58:12;99360.38;;;-1.36
28803;BMP280;15949;55.656;37.422;2022-11-03T01:03:18;99361.97;;;-1.31
28803;BMP280;15949;55.656;37.422;2022-11-03T01:08:24;99361.94;;;-1.35
28803;BMP280;15949;55.656;37.422;2022-11-03T01:13:29;99373.97;;;-1.30
28803;BMP280;15949;55.656;37.422;2022-11-03T01:18:35;99377.50;;;-1.39
28803;BMP280;15949;55.656;37.422;2022-11-03T01:23:40;99382.63;;;-1.42
28803;BMP280;15949;55.656;37.422;2022-11-03T01:28:47;99388.81;;;-1.35
28803;BMP280;15949;55.656;37.422;2022-11-03T01:33:54;99387.88;;;-1.42
28803;BMP280;15949;55.656;37.422;2022-11-03T01:39:00;99390.16;;;-1.41
28803;BMP280;15949;55.656;37.422;2022-11-03T01:54:40;99390.91;;;-1.40
28803;BMP280;15949;55.656;37.422;2022-11-03T01:59:47;99387.13;;;-1.43
28803;BMP280;15949;55.656;37.422;2022-11-03T02:04:54;99384.66;;;-1.51
28803;BMP280;15949;55.656;37.422;2022-11-03T02:10:02;99377.00;;;-1.60
28803;BMP280;15949;55.656;37.422;2022-11-03T02:15:10;99391.69;;;-1.71
28803;BMP280;15949;55.656;37.422;2022-11-03T02:20:20;99389.50;;;-1.69
28803;BMP280;15949;55.656;37.422;2022-11-03T02:36:05;99370.88;;;-1.84
28803;BMP280;15949;55.656;37.422;2022-11-03T02:41:16;99374.34;;;-1.80
28803;BMP280;15949;55.656;37.422;2022-11-03T02:46:24;99369.38;;;-1.85
28803;BMP280;15949;55.656;37.422;2022-11-03T02:51:30;99375.69;;;-1.70
28803;BMP280;15949;55.656;37.422;2022-11-03T02:56:42;99375.88;;;-1.79
28803;BMP280;15949;55.656;37.422;2022-11-03T03:02:09;99375.59;;;-1.73
28803;BMP280;15949;55.656;37.422;2022-11-03T03:07:20;99385.53;;;-1.79
28803;BMP280;15949;55.656;37.422;2022-11-03T03:12:27;99382.75;;;-1.70
28803;BMP280;15949;55.656;37.422;2022-11-03T03:17:48;99370.44;;;-1.86
28803;BMP280;15949;55.656;37.422;2022-11-03T03:22:59;99384.19;;;-1.89
28803;BMP280;15949;55.656;37.422;2022-11-03T03:28:09;99382.22;;;-1.92
28803;BMP280;15949;55.656;37.422;2022-11-03T03:33:16;99380.84;;;-2.18
28803;BMP280;15949;55.656;37.422;2022-11-03T03:38:26;99382.72;;;-2.02
28803;BMP280;15949;55.656;37.422;2022-11-03T03:43:34;99373.91;;;-1.98
28803;BMP280;15949;55.656;37.422;2022-11-03T03:48:40;99373.91;;;-1.98
28803;BMP280;15949;55.656;37.422;2022-11-03T03:53:49;99384.41;;;-1.94
28803;BMP280;15949;55.656;37.422;2022-11-03T03:58:56;99376.50;;;-1.82
28803;BMP280;15949;55.656;37.422;2022-11-03T04:04:02;99379.81;;;-1.69
28803;BMP280;15949;55.656;37.422;2022-11-03T04:09:08;99389.66;;;-1.62
28803;BMP280;15949;55.656;37.422;2022-11-03T04:14:14;99393.94;;;-1.54
28803;BMP280;15949;55.656;37.422;2022-11-03T04:19:38;99389.66;;;-1.62
28803;BMP280;15949;55.656;37.422;2022-11-03T04:25:02;99395.28;;;-1.60
28803;BMP280;15949;55.656;37.422;2022-11-03T04:40:21;99394.25;;;-2.03
28803;BMP280;15949;55.656;37.422;2022-11-03T04:45:31;99407.31;;;-2.03
28803;BMP280;15949;55.656;37.422;2022-11-03T04:50:39;99404.09;;;-2.12
28803;BMP280;15949;55.656;37.422;2022-11-03T04:55:48;99412.34;;;-2.10
28803;BMP280;15949;55.656;37.422;2022-11-03T05:00:59;99408.91;;;-1.99
28803;BMP280;15949;55.656;37.422;2022-11-03T05:06:25;99410.34;;;-2.01
28803;BMP280;15949;55.656;37.422;2022-11-03T05:11:40;99408.97;;;-1.83
28803;BMP280;15949;55.656;37.422;2022-11-03T05:16:47;99407.75;;;-1.85
28803;BMP280;15949;55.656;37.422;2022-11-03T05:21:55;99410.44;;;-1.98
28803;BMP280;15949;55.656;37.422;2022-11-03T05:27:02;99412.22;;;-1.86
28803;BMP280;15949;55.656;37.422;2022-11-03T05:32:13;99418.19;;;-1.85
28803;BMP280;15949;55.656;37.422;2022-11-03T05:37:34;99420.97;;;-1.94
28803;BMP280;15949;55.656;37.422;2022-11-03T05:42:41;99426.19;;;-1.94
28803;BMP280;15949;55.656;37.422;2022-11-03T05:47:52;99430.06;;;-1.88
28803;BMP280;15949;55.656;37.422;2022-11-03T05:53:18;99421.47;;;-1.88
28803;BMP280;15949;55.656;37.422;2022-11-03T05:58:37;99424.84;;;-1.88
28803;BMP280;15949;55.656;37.422;2022-11-03T06:03:44;99430.88;;;-1.71
28803;BMP280;15949;55.656;37.422;2022-11-03T06:08:51;99434.81;;;-1.78
28803;BMP280;15949;55.656;37.422;2022-11-03T06:13:58;99433.53;;;-1.84
28803;BMP280;15949;55.656;37.422;2022-11-03T06:19:25;99432.69;;;-1.88
28803;BMP280;15949;55.656;37.422;2022-11-03T06:24:32;99430.69;;;-1.79
28803;BMP280;15949;55.656;37.422;2022-11-03T06:29:38;99434.38;;;-1.64
28803;BMP280;15949;55.656;37.422;2022-11-03T06:34:47;99443.56;;;-1.54
28803;BMP280;15949;55.656;37.422;2022-11-03T06:39:59;99438.84;;;-1.64
28803;BMP280;15949;55.656;37.422;2022-11-03T06:45:19;99451.00;;;-1.56
28803;BMP280;15949;55.656;37.422;2022-11-03T06:50:28;99446.09;;;-1.73
28803;BMP280;15949;55.656;37.422;2022-11-03T06:55:35;99442.47;;;-1.85
28803;BMP280;15949;55.656;37.422;2022-11-03T07:00:41;99449.03;;;-1.91
28803;BMP280;15949;55.656;37.422;2022-11-03T07:05:48;99448.84;;;-1.98
28803;BMP280;15949;55.656;37.422;2022-11-03T07:11:03;99448.88;;;-2.10
28803;BMP280;15949;55.656;37.422;2022-11-03T07:32:24;99465.88;;;-1.88
28803;BMP280;15949;55.656;37.422;2022-11-03T07:37:31;99465.41;;;-2.06
28803;BMP280;15949;55.656;37.422;2022-11-03T07:42:37;99464.53;;;-2.10
28803;BMP280;15949;55.656;37.422;2022-11-03T07:47:43;99467.00;;;-1.73
28803;BMP280;15949;55.656;37.422;2022-11-03T07:52:51;99465.47;;;-1.74
28803;BMP280;15949;55.656;37.422;2022-11-03T07:57:58;99469.38;;;-1.97
28803;BMP280;15949;55.656;37.422;2022-11-03T08:03:04;99464.06;;;-2.00
28803;BMP280;15949;55.656;37.422;2022-11-03T08:08:10;99468.31;;;-1.80
28803;BMP280;15949;55.656;37.422;2022-11-03T08:13:16;99469.16;;;-1.91
28803;BMP280;15949;55.656;37.422;2022-11-03T08:18:22;99460.53;;;-1.92
28803;BMP280;15949;55.656;37.422;2022-11-03T08:23:27;99459.22;;;-1.86
28803;BMP280;15949;55.656;37.422;2022-11-03T08:28:34;99464.38;;;-1.58
28803;BMP280;15949;55.656;37.422;2022-11-03T08:33:40;99461.69;;;-1.45
28803;BMP280;15949;55.656;37.422;2022-11-03T08:38:45;99452.50;;;-1.55
28803;BMP280;15949;55.656;37.422;2022-11-03T08:43:51;99449.31;;;-1.80
28803;BMP280;15949;55.656;37.422;2022-11-03T08:48:56;99453.69;;;-1.68
28803;BMP280;15949;55.656;37.422;2022-11-03T08:54:02;99453.03;;;-1.65
28803;BMP280;15949;55.656;37.422;2022-11-03T08:59:08;99449.56;;;-1.53
28803;BMP280;15949;55.656;37.422;2022-11-03T09:04:14;99443.16;;;-1.40
28803;BMP280;15949;55.656;37.422;2022-11-03T09:09:20;99448.47;;;-1.37
28803;BMP280;15949;55.656;37.422;2022-11-03T09:14:26;99454.63;;;-1.45
28803;BMP280;15949;55.656;37.422;2022-11-03T09:19:32;99442.03;;;-1.55
28803;BMP280;15949;55.656;37.422;2022-11-03T09:24:38;99443.56;;;-1.54
28803;BMP280;15949;55.656;37.422;2022-11-03T09:29:45;99444.91;;;-1.60
28803;BMP280;15949;55.656;37.422;2022-11-03T09:34:51;99448.97;;;-1.47
28803;BMP280;15949;55.656;37.422;2022-11-03T09:39:57;99455.28;;;-1.48
28803;BMP280;15949;55.656;37.422;2022-11-03T09:45:04;99450.41;;;-1.49
28803;BMP280;15949;55.656;37.422;2022-11-03T09:50:15;99452.25;;;-1.34
28803;BMP280;15949;55.656;37.422;2022-11-03T09:55:24;99457.41;;;-1.38
28803;BMP280;15949;55.656;37.422;2022-11-03T10:00:31;99463.56;;;-1.46
28803;BMP280;15949;55.656;37.422;2022-11-03T10:05:37;99462.78;;;-1.62
28803;BMP280;15949;55.656;37.422;2022-11-03T10:10:43;99456.22;;;-1.56
28803;BMP280;15949;55.656;37.422;2022-11-03T10:15:49;99458.13;;;-1.53
28803;BMP280;15949;55.656;37.422;2022-11-03T10:21:13;99447.97;;;-1.74
28803;BMP280;15949;55.656;37.422;2022-11-03T10:26:20;99441.97;;;-1.74
28803;BMP280;15949;55.656;37.422;2022-11-03T10:31:37;99447.59;;;-1.88
28803;BMP280;15949;55.656;37.422;2022-11-03T10:36:43;99437.91;;;-1.88
28803;BMP280;15949;55.656;37.422;2022-11-03T10:41:58;99444.66;;;-1.55
28803;BMP280;15949;55.656;37.422;2022-11-03T10:47:04;99447.09;;;-1.62
28803;BMP280;15949;55.656;37.422;2022-11-03T10:52:25;99435.56;;;-1.45
28803;BMP280;15949;55.656;37.422;2022-11-03T10:57:31;99442.91;;;-1.51
28803;BMP280;15949;55.656;37.422;2022-11-03T11:02:39;99451.84;;;-1.52
28803;BMP280;15949;55.656;37.422;2022-11-03T11:07:47;99445.66;;;-1.60
28803;BMP280;15949;55.656;37.422;2022-11-03T11:49:44;99447.63;;;-1.41
28803;BMP280;15949;55.656;37.422;2022-11-03T11:54:49;99440.97;;;-1.38
28803;BMP280;15949;55.656;37.422;2022-11-03T11:59:55;99454.63;;;-1.45
28803;BMP280;15949;55.656;37.422;2022-11-03T12:05:00;99455.72;;;-1.46
28803;BMP280;15949;55.656;37.422;2022-11-03T12:10:30;99443.66;;;-1.66
28803;BMP280;15949;55.656;37.422;2022-11-03T12:15:53;99444.06;;;-1.64
28803;BMP280;15949;55.656;37.422;2022-11-03T12:21:01;99449.22;;;-1.52
28803;BMP280;15949;55.656;37.422;2022-11-03T12:31:31;99443.25;;;-1.68
28803;BMP280;15949;55.656;37.422;2022-11-03T12:36:36;99437.69;;;-1.83
28803;BMP280;15949;55.656;37.422;2022-11-03T12:41:42;99436.09;;;-1.71
28803;BMP280;15949;55.656;37.422;2022-11-03T12:46:47;99437.59;;;-1.70
28803;BMP280;15949;55.656;37.422;2022-11-03T12:51:53;99446.41;;;-1.59
28803;BMP280;15949;55.656;37.422;2022-11-03T12:56:59;99445.34;;;-1.74
28803;BMP280;15949;55.656;37.422;2022-11-03T13:02:05;99446.59;;;-1.84
28803;BMP280;15949;55.656;37.422;2022-11-03T13:07:11;99454.94;;;-1.78
28803;BMP280;15949;55.656;37.422;2022-11-03T13:12:16;99448.78;;;-1.86
28803;BMP280;15949;55.656;37.422;2022-11-03T13:17:37;99452.50;;;-1.55
28803;BMP280;15949;55.656;37.422;2022-11-03T13:22:42;99446.19;;;-1.54
28803;BMP280;15949;55.656;37.422;2022-11-03T13:27:48;99445.25;;;-1.62
28803;BMP280;15949;55.656;37.422;2022-11-03T13:32:58;99455.38;;;-1.60
28803;BMP280;15949;55.656;37.422;2022-11-03T13:38:03;99462.63;;;-1.38
28803;BMP280;15949;55.656;37.422;2022-11-03T13:43:09;99458.56;;;-1.51
28803;BMP280;15949;55.656;37.422;2022-11-03T13:48:15;99454.50;;;-1.64
28803;BMP280;15949;55.656;37.422;2022-11-03T13:53:23;99462.78;;;-1.78
28803;BMP280;15949;55.656;37.422;2022-11-03T13:58:28;99460.91;;;-1.78
28803;BMP280;15949;55.656;37.422;2022-11-03T14:03:34;99461.78;;;-1.73
28803;BMP280;15949;55.656;37.422;2022-11-03T14:08:40;99459.00;;;-1.81
28803;BMP280;15949;55.656;37.422;2022-11-03T14:13:45;99470.19;;;-1.64
28803;BMP280;15949;55.656;37.422;2022-11-03T14:18:51;99469.97;;;-1.87
28803;BMP280;15949;55.656;37.422;2022-11-03T14:23:56;99460.66;;;-1.72
28803;BMP280;15949;55.656;37.422;2022-11-03T14:29:02;99470.25;;;-1.77
28803;BMP280;15949;55.656;37.422;2022-11-03T14:34:08;99463.88;;;-2.07
28803;BMP280;15949;55.656;37.422;2022-11-03T14:39:14;99463.69;;;-1.86
28803;BMP280;15949;55.656;37.422;2022-11-03T14:44:19;99461.94;;;-1.66
28803;BMP280;15949;55.656;37.422;2022-11-03T14:49:25;99459.88;;;-1.89
28803;BMP280;15949;55.656;37.422;2022-11-03T14:54:30;99461.09;;;-1.70
28803;BMP280;15949;55.656;37.422;2022-11-03T14:59:36;99464.88;;;-1.68
28803;BMP280;15949;55.656;37.422;2022-11-03T15:04:42;99469.03;;;-1.67
28803;BMP280;15949;55.656;37.422;2022-11-03T15:09:47;99471.38;;;-1.78
28803;BMP280;15949;55.656;37.422;2022-11-03T15:14:53;99476.78;;;-1.99
28803;BMP280;15949;55.656;37.422;2022-11-03T15:19:58;99476.97;;;-1.91
28803;BMP280;15949;55.656;37.422;2022-11-03T15:25:04;99477.91;;;-1.84
28803;BMP280;15949;55.656;37.422;2022-11-03T15:30:11;99472.69;;;-1.84
28803;BMP280;15949;55.656;37.422;2022-11-03T15:35:16;99465.75;;;-1.92
28803;BMP280;15949;55.656;37.422;2022-11-03T15:40:22;99477.75;;;-1.91
28803;BMP280;15949;55.656;37.422;2022-11-03T15:45:28;99475.16;;;-1.75
28803;BMP280;15949;55.656;37.422;2022-11-03T15:50:33;99477.69;;;-1.79
28803;BMP280;15949;55.656;37.422;2022-11-03T15:55:39;99471.47;;;-1.74
28803;BMP280;15949;55.656;37.422;2022-11-03T16:00:45;99465.66;;;-1.67
28803;BMP280;15949;55.656;37.422;2022-11-03T16:05:50;99472.41;;;-1.66
28803;BMP280;15949;55.656;37.422;2022-11-03T16:10:56;99467.16;;;-1.66
28803;BMP280;15949;55.656;37.422;2022-11-03T16:16:01;99463.28;;;-1.72
28803;BMP280;15949;55.656;37.422;2022-11-03T16:21:07;99468.00;;;-1.62
28803;BMP280;15949;55.656;37.422;2022-11-03T16:26:13;99478.28;;;-1.69
28803;BMP280;15949;55.656;37.422;2022-11-03T16:31:19;99480.47;;;-1.71
28803;BMP280;15949;55.656;37.422;2022-11-03T16:36:24;99481.34;;;-1.67
28803;BMP280;15949;55.656;37.422;2022-11-03T16:41:30;99479.34;;;-1.26
28803;BMP280;15949;55.656;37.422;2022-11-03T16:46:35;99472.75;;;-1.52
28803;BMP280;15949;55.656;37.422;2022-11-03T16:51:41;99467.94;;;-1.50
28803;BMP280;15949;55.656;37.422;2022-11-03T16:56:47;99470.34;;;-1.57
28803;BMP280;15949;55.656;37.422;2022-11-03T17:01:52;99478.72;;;-1.67
28803;BMP280;15949;55.656;37.422;2022-11-03T17:06:58;99483.34;;;-1.45
28803;BMP280;15949;55.656;37.422;2022-11-03T18:24:25;99481.56;;;-1.72
28803;BMP280;15949;55.656;37.422;2022-11-03T18:29:31;99465.72;;;-1.80
28803;BMP280;15949;55.656;37.422;2022-11-03T18:34:37;99469.19;;;-1.76
28803;BMP280;15949;55.656;37.422;2022-11-03T18:39:42;99468.16;;;-1.87
28803;BMP280;15949;55.656;37.422;2022-11-03T18:44:48;99465.75;;;-1.92
28803;BMP280;15949;55.656;37.422;2022-11-03T18:49:54;99466.44;;;-1.95
28803;BMP280;15949;55.656;37.422;2022-11-03T18:54:59;99464.81;;;-2.00
28803;BMP280;15949;55.656;37.422;2022-11-03T19:00:19;99466.00;;;-1.97
28803;BMP280;15949;55.656;37.422;2022-11-03T19:05:25;99462.72;;;-1.94
28803;BMP280;15949;55.656;37.422;2022-11-03T19:10:31;99463.97;;;-1.76
28803;BMP280;15949;55.656;37.422;2022-11-03T19:15:37;99469.19;;;-1.76
28803;BMP280;15949;55.656;37.422;2022-11-03T19:20:42;99463.34;;;-1.85
28803;BMP280;15949;55.656;37.422;2022-11-03T19:25:50;99458.72;;;-1.91
28803;BMP280;15949;55.656;37.422;2022-11-03T19:30:57;99461.22;;;-1.95
28803;BMP280;15949;55.656;37.422;2022-11-03T19:36:02;99465.09;;;-1.89
28803;BMP280;15949;55.656;37.422;2022-11-03T19:41:13;99462.72;;;-1.94
28803;BMP280;15949;55.656;37.422;2022-11-03T19:46:39;99463.22;;;-2.04
28803;BMP280;15949;55.656;37.422;2022-11-03T19:51:45;99451.91;;;-2.08
28803;BMP280;15949;55.656;37.422;2022-11-03T19:56:51;99455.88;;;-1.99
28803;BMP280;15949;55.656;37.422;2022-11-03T20:01:56;99447.75;;;-1.81
28803;BMP280;15949;55.656;37.422;2022-11-03T20:07:02;99462.06;;;-1.91
28803;BMP280;15949;55.656;37.422;2022-11-03T20:12:14;99462.41;;;-1.92
